Time;durP1;ratioP1;P1;durP2;ratioP2;P2;SDS_P1;SDS_P2;PMS_P1;PMS_P2;Temp;Humidity;BMP_temperature;BMP_pressure;BME280_temperature;BME280_humidity;BME280_pressure;Samples;Min_cycle;Max_cycle;Signal;HPM_P1;HPM_P2
2021/10/19 00:00:14;;;;;;;10.40;7.88;;;;;;;;;;5078750;28;20089;-78
2021/10/19 00:02:40;;;;;;;11.50;8.25;;;;;;;;;;5066391;28;20027;-78
2021/10/19 00:05:07;;;;;;;11.95;7.75;;;;;;;;;;5087927;28;20471;-77
2021/10/19 00:07:33;;;;;;;11.95;8.18;;;;;;;;;;5069214;28;20051;-78
2021/10/19 00:09:58;;;;;;;11.93;8.30;;;;;;;;;;5076809;28;20032;-78
2021/10/19 00:12:24;;;;;;;10.82;8.40;;;;;;;;;;5081037;28;20074;-78
2021/10/19 00:14:49;;;;;;;11.43;7.97;;;;;;;;;;5078697;28;20037;-77
2021/10/19 00:17:15;;;;;;;11.15;8.32;;;;;;;;;;5081168;28;20086;-79
2021/10/19 00:19:41;;;;;;;11.68;8.48;;;;;;;;;;5080287;28;20155;-78
2021/10/19 00:22:07;;;;;;;11.65;8.68;;;;;;;;;;5075817;28;20028;-78
2021/10/19 00:24:32;;;;;;;11.00;7.97;;;;;;;;;;5072193;28;20089;-77
2021/10/19 00:26:58;;;;;;;12.02;8.52;;;;;;;;;;5081348;28;20024;-79
2021/10/19 00:29:23;;;;;;;14.48;8.98;;;;;;;;;;5079651;28;20382;-78
2021/10/19 00:31:50;;;;;;;11.57;8.40;;;;;;;;;;5080976;28;20372;-78
2021/10/19 00:34:16;;;;;;;12.20;8.57;;;;;;;;;;5081266;28;20031;-78
2021/10/19 00:36:41;;;;;;;12.20;8.73;;;;;;;;;;5088973;28;20111;-78
2021/10/19 00:39:07;;;;;;;11.05;8.98;;;;;;;;;;5078932;28;21780;-77
2021/10/19 00:41:32;;;;;;;12.57;8.35;;;;;;;;;;5085805;28;20028;-77
2021/10/19 00:43:59;;;;;;;10.88;8.48;;;;;;;;;;5085859;28;20020;-78
2021/10/19 00:46:24;;;;;;;13.85;8.73;;;;;;;;;;5080936;28;20040;-78
2021/10/19 00:48:50;;;;;;;10.80;8.57;;;;;;;;;;5080627;28;20042;-78
2021/10/19 00:51:16;;;;;;;10.82;7.68;;;;;;;;;;5082299;28;20475;-78
2021/10/19 00:53:42;;;;;;;12.25;9.02;;;;;;;;;;5084512;28;20411;-78
2021/10/19 00:56:08;;;;;;;13.77;8.80;;;;;;;;;;5071423;28;20049;-78
2021/10/19 00:58:37;;;;;;;12.10;8.98;;;;;;;;;;5082324;28;20044;-78
2021/10/19 01:01:02;;;;;;;10.93;8.68;;;;;;;;;;5084752;28;20069;-77
2021/10/19 01:03:28;;;;;;;13.50;8.55;;;;;;;;;;5085773;28;20040;-78
2021/10/19 01:05:53;;;;;;;12.30;8.73;;;;;;;;;;5080632;28;20505;-77
2021/10/19 01:08:19;;;;;;;12.35;8.80;;;;;;;;;;5065208;28;20036;-78
2021/10/19 01:10:44;;;;;;;11.68;8.68;;;;;;;;;;5082659;28;20031;-78
2021/10/19 01:13:10;;;;;;;12.77;9.23;;;;;;;;;;5088756;28;20405;-78
2021/10/19 01:15:36;;;;;;;12.07;8.52;;;;;;;;;;5080598;28;20031;-79
2021/10/19 01:18:02;;;;;;;11.48;8.30;;;;;;;;;;5083777;28;20020;-78
2021/10/19 01:20:29;;;;;;;12.15;9.07;;;;;;;;;;5060963;28;20115;-77
2021/10/19 01:22:55;;;;;;;12.30;8.82;;;;;;;;;;5075580;28;20064;-78
2021/10/19 01:25:24;;;;;;;13.80;8.60;;;;;;;;;;5075842;28;20023;-78
2021/10/19 01:27:55;;;;;;;13.65;8.98;;;;;;;;;;5075864;28;20028;-78
2021/10/19 01:30:21;;;;;;;11.13;8.30;;;;;;;;;;5091920;28;20673;-78
2021/10/19 01:32:47;;;;;;;13.90;8.52;;;;;;;;;;5074701;28;20047;-78
2021/10/19 01:35:12;;;;;;;12.75;8.63;;;;;;;;;;5073563;28;20376;-77
2021/10/19 01:37:39;;;;;;;12.13;8.00;;;;;;;;;;5082025;28;20057;-77
2021/10/19 01:40:11;;;;;;;13.23;8.50;;;;;;;;;;5052507;28;20044;-78
2021/10/19 01:42:37;;;;;;;11.00;8.00;;;;;;;;;;5072975;28;20032;-78
2021/10/19 01:45:03;;;;;;;12.25;8.38;;;;;;;;;;5073539;28;20025;-77
2021/10/19 01:47:28;;;;;;;11.85;8.15;;;;;;;;;;5076347;28;20483;-77
2021/10/19 01:49:54;;;;;;;12.25;8.75;;;;;;;;;;5074121;28;20036;-78
2021/10/19 01:52:20;;;;;;;12.02;8.27;;;;;;;;;;5076400;28;20024;-77
2021/10/19 01:54:45;;;;;;;12.07;7.85;;;;;;;;;;5078070;28;20033;-78
2021/10/19 01:57:10;;;;;;;11.27;8.20;;;;;;;;;;5072092;28;20437;-78
2021/10/19 01:59:36;;;;;;;13.05;8.40;;;;;;;;;;5060603;28;20043;-78
2021/10/19 02:02:01;;;;;;;11.27;8.18;;;;;;;;;;5066962;28;20047;-77
2021/10/19 02:04:27;;;;;;;11.55;8.18;;;;;;;;;;5060912;28;20066;-78
2021/10/19 02:06:52;;;;;;;11.98;8.10;;;;;;;;;;5062305;28;20097;-78
2021/10/19 02:09:17;;;;;;;12.60;8.43;;;;;;;;;;5068783;28;20079;-78
2021/10/19 02:11:43;;;;;;;15.85;8.18;;;;;;;;;;5073478;28;20039;-78
2021/10/19 02:14:08;;;;;;;14.85;8.30;;;;;;;;;;5075552;28;20036;-78
2021/10/19 02:16:34;;;;;;;10.23;7.35;;;;;;;;;;5058889;28;20116;-78
2021/10/19 02:18:59;;;;;;;11.05;8.30;;;;;;;;;;5060579;28;20767;-78
2021/10/19 02:21:24;;;;;;;15.23;8.40;;;;;;;;;;5061292;28;20109;-77
2021/10/19 02:23:50;;;;;;;10.50;8.23;;;;;;;;;;5061626;28;20036;-77
2021/10/19 02:26:15;;;;;;;12.07;8.73;;;;;;;;;;5074463;28;20036;-77
2021/10/19 02:28:41;;;;;;;10.73;7.22;;;;;;;;;;5079634;28;20126;-78
2021/10/19 02:31:06;;;;;;;10.93;8.60;;;;;;;;;;5072429;28;20181;-78
2021/10/19 02:33:32;;;;;;;11.05;8.50;;;;;;;;;;5065283;28;20407;-77
2021/10/19 02:35:58;;;;;;;10.85;8.00;;;;;;;;;;5074022;28;20042;-78
2021/10/19 02:38:23;;;;;;;9.73;7.60;;;;;;;;;;5075195;28;20043;-77
2021/10/19 02:40:48;;;;;;;11.15;8.23;;;;;;;;;;5079569;28;21629;-78
2021/10/19 02:43:15;;;;;;;12.85;8.70;;;;;;;;;;5063933;28;20151;-77
2021/10/19 02:45:40;;;;;;;10.27;8.07;;;;;;;;;;5079202;28;20032;-78
2021/10/19 02:48:06;;;;;;;11.30;8.55;;;;;;;;;;5078940;28;20036;-77
2021/10/19 02:50:31;;;;;;;14.23;8.68;;;;;;;;;;5076636;28;20051;-78
2021/10/19 02:52:56;;;;;;;11.10;8.20;;;;;;;;;;5076887;28;20027;-77
2021/10/19 02:55:22;;;;;;;12.80;8.80;;;;;;;;;;5075568;28;20032;-78
2021/10/19 02:57:47;;;;;;;11.43;8.50;;;;;;;;;;5077042;28;20090;-78
2021/10/19 03:00:14;;;;;;;11.98;8.85;;;;;;;;;;5074432;28;20040;-77
2021/10/19 03:02:40;;;;;;;11.40;8.88;;;;;;;;;;5074273;28;20191;-78
2021/10/19 03:05:06;;;;;;;12.18;8.73;;;;;;;;;;5075390;28;20116;-78
2021/10/19 03:07:31;;;;;;;12.15;9.00;;;;;;;;;;5078259;28;20059;-77
2021/10/19 03:09:57;;;;;;;14.52;9.35;;;;;;;;;;5080840;28;20728;-78
2021/10/19 03:12:22;;;;;;;11.30;8.43;;;;;;;;;;5079508;28;20032;-78
2021/10/19 03:14:47;;;;;;;11.10;8.88;;;;;;;;;;5079807;28;20088;-78
2021/10/19 03:17:13;;;;;;;11.20;8.85;;;;;;;;;;5080837;28;20048;-77
2021/10/19 03:19:38;;;;;;;14.63;8.88;;;;;;;;;;5079363;28;20039;-77
2021/10/19 03:22:04;;;;;;;12.05;8.82;;;;;;;;;;5078209;28;20037;-78
2021/10/19 03:24:29;;;;;;;10.60;8.40;;;;;;;;;;5078870;28;20402;-77
2021/10/19 03:26:55;;;;;;;11.55;8.57;;;;;;;;;;5081819;28;20078;-78
2021/10/19 03:29:21;;;;;;;12.02;8.80;;;;;;;;;;5064657;28;20032;-78
2021/10/19 03:31:47;;;;;;;13.32;8.98;;;;;;;;;;5075743;28;20495;-78
2021/10/19 03:34:13;;;;;;;11.15;8.75;;;;;;;;;;5071483;28;20081;-78
2021/10/19 03:36:38;;;;;;;12.80;8.98;;;;;;;;;;5077935;28;20040;-78
2021/10/19 03:39:04;;;;;;;10.13;8.57;;;;;;;;;;5076568;28;20154;-78
2021/10/19 03:41:29;;;;;;;11.88;8.95;;;;;;;;;;5076291;28;20033;-78
2021/10/19 03:43:55;;;;;;;12.45;8.52;;;;;;;;;;5062341;28;20039;-77
2021/10/19 03:46:20;;;;;;;11.30;8.07;;;;;;;;;;5074215;28;20124;-77
2021/10/19 03:48:46;;;;;;;12.20;8.25;;;;;;;;;;5065671;28;20027;-78
2021/10/19 03:51:11;;;;;;;11.35;8.32;;;;;;;;;;5071573;28;20083;-78
2021/10/19 03:53:37;;;;;;;10.35;8.32;;;;;;;;;;5081039;28;20132;-78
2021/10/19 03:56:04;;;;;;;11.90;9.10;;;;;;;;;;5066721;28;20036;-77
2021/10/19 03:58:29;;;;;;;10.18;8.07;;;;;;;;;;5059361;28;20029;-78
2021/10/19 04:00:55;;;;;;;10.90;8.00;;;;;;;;;;5062561;28;20044;-78
2021/10/19 04:03:20;;;;;;;10.38;8.43;;;;;;;;;;5076324;28;20089;-77
2021/10/19 04:05:46;;;;;;;10.15;8.15;;;;;;;;;;5073707;28;20053;-77
2021/10/19 04:08:12;;;;;;;11.73;8.52;;;;;;;;;;5060138;28;20032;-78
2021/10/19 04:10:37;;;;;;;12.52;8.77;;;;;;;;;;5077206;28;20023;-78
2021/10/19 04:13:03;;;;;;;10.02;8.30;;;;;;;;;;5075114;28;20063;-78
2021/10/19 04:15:28;;;;;;;10.82;8.40;;;;;;;;;;5078703;28;20032;-77
2021/10/19 04:17:54;;;;;;;11.18;8.98;;;;;;;;;;5079406;28;20043;-78
2021/10/19 04:20:19;;;;;;;10.55;8.75;;;;;;;;;;5074529;28;20097;-78
2021/10/19 04:22:44;;;;;;;10.32;8.60;;;;;;;;;;5077659;28;20028;-78
2021/10/19 04:25:10;;;;;;;13.52;9.27;;;;;;;;;;5077009;28;20040;-78
2021/10/19 04:27:35;;;;;;;13.13;8.88;;;;;;;;;;5063838;28;20028;-77
2021/10/19 04:30:01;;;;;;;10.05;8.23;;;;;;;;;;5076630;28;20039;-78
2021/10/19 04:32:26;;;;;;;14.80;8.88;;;;;;;;;;5075260;28;20032;-78
2021/10/19 04:34:52;;;;;;;12.05;9.20;;;;;;;;;;5079100;28;20029;-78
2021/10/19 04:37:17;;;;;;;11.35;8.93;;;;;;;;;;5062079;28;20075;-78
2021/10/19 04:39:43;;;;;;;9.98;8.30;;;;;;;;;;5071076;28;20056;-78
2021/10/19 04:42:08;;;;;;;12.38;8.68;;;;;;;;;;5076557;28;20491;-78
2021/10/19 04:44:34;;;;;;;11.55;8.88;;;;;;;;;;5077680;28;20032;-77
2021/10/19 04:46:59;;;;;;;11.32;9.40;;;;;;;;;;5068847;28;20086;-78
2021/10/19 04:49:25;;;;;;;10.43;8.95;;;;;;;;;;5078633;28;20044;-78
2021/10/19 04:51:50;;;;;;;13.52;9.07;;;;;;;;;;5078828;28;20028;-78
2021/10/19 04:54:16;;;;;;;9.90;8.65;;;;;;;;;;5058669;28;20034;-78
2021/10/19 04:56:41;;;;;;;11.85;9.07;;;;;;;;;;5092879;28;20024;-78
2021/10/19 04:59:07;;;;;;;12.05;9.10;;;;;;;;;;5064419;28;20051;-78
2021/10/19 05:01:32;;;;;;;10.32;9.20;;;;;;;;;;5089909;28;20080;-78
2021/10/19 05:03:57;;;;;;;11.00;9.52;;;;;;;;;;5065748;28;20450;-78
2021/10/19 05:06:24;;;;;;;11.13;9.10;;;;;;;;;;5076329;28;20142;-77
2021/10/19 05:08:50;;;;;;;10.32;8.85;;;;;;;;;;5077045;28;20468;-77
2021/10/19 05:11:15;;;;;;;10.55;8.65;;;;;;;;;;5080659;28;20044;-78
2021/10/19 05:13:41;;;;;;;11.32;9.02;;;;;;;;;;5083180;28;20473;-78
2021/10/19 05:16:07;;;;;;;11.32;8.77;;;;;;;;;;5087079;28;20031;-78
2021/10/19 05:18:32;;;;;;;11.27;9.40;;;;;;;;;;5084550;28;20044;-77
2021/10/19 05:20:59;;;;;;;9.68;8.45;;;;;;;;;;5089927;28;20048;-77
2021/10/19 05:23:24;;;;;;;10.50;8.20;;;;;;;;;;5081200;28;20040;-77
2021/10/19 05:25:50;;;;;;;9.75;8.40;;;;;;;;;;5079423;28;20040;-78
2021/10/19 05:28:15;;;;;;;10.75;8.57;;;;;;;;;;5096110;28;20465;-77
2021/10/19 05:30:40;;;;;;;12.68;8.73;;;;;;;;;;5069829;28;20119;-78
2021/10/19 05:33:07;;;;;;;9.32;7.93;;;;;;;;;;5085117;28;20037;-77
2021/10/19 05:35:33;;;;;;;9.80;8.25;;;;;;;;;;5077833;28;20036;-78
2021/10/19 05:37:59;;;;;;;11.18;8.40;;;;;;;;;;5087667;28;20024;-77
2021/10/19 05:40:25;;;;;;;10.43;8.95;;;;;;;;;;5091460;28;20031;-77
2021/10/19 05:42:51;;;;;;;11.23;8.05;;;;;;;;;;5083104;28;20462;-78
2021/10/19 05:45:19;;;;;;;10.02;8.95;;;;;;;;;;5082172;28;20059;-78
2021/10/19 05:47:45;;;;;;;9.55;8.32;;;;;;;;;;5084711;28;20104;-78
2021/10/19 05:50:13;;;;;;;9.82;8.25;;;;;;;;;;5090634;28;20085;-78
2021/10/19 05:52:40;;;;;;;9.27;8.20;;;;;;;;;;5081727;28;20082;-78
2021/10/19 05:55:06;;;;;;;9.13;7.70;;;;;;;;;;5094311;28;20475;-78
2021/10/19 05:57:31;;;;;;;8.82;7.57;;;;;;;;;;5093258;28;20107;-78
2021/10/19 05:59:57;;;;;;;9.45;8.02;;;;;;;;;;5087126;28;20034;-77
2021/10/19 06:02:22;;;;;;;11.73;8.60;;;;;;;;;;5090169;28;20031;-78
2021/10/19 06:04:47;;;;;;;9.80;8.05;;;;;;;;;;5087619;28;20024;-78
2021/10/19 06:07:13;;;;;;;10.35;8.63;;;;;;;;;;5083452;28;20044;-78
2021/10/19 06:09:38;;;;;;;9.50;8.02;;;;;;;;;;5081167;28;20375;-78
2021/10/19 06:12:05;;;;;;;9.10;8.18;;;;;;;;;;5089170;28;20035;-77
2021/10/19 06:14:31;;;;;;;8.25;7.38;;;;;;;;;;5086015;28;20388;-77
2021/10/19 06:16:56;;;;;;;9.18;7.47;;;;;;;;;;5093644;28;20024;-78
2021/10/19 06:19:22;;;;;;;10.38;7.88;;;;;;;;;;5097408;28;20031;-78
2021/10/19 06:21:48;;;;;;;8.50;7.25;;;;;;;;;;5090172;28;20032;-78
2021/10/19 06:24:13;;;;;;;9.43;7.82;;;;;;;;;;5088181;28;20150;-78
2021/10/19 06:26:38;;;;;;;8.70;7.72;;;;;;;;;;5088057;28;20036;-77
2021/10/19 06:29:10;;;;;;;10.32;7.75;;;;;;;;;;5088845;28;20028;-78
2021/10/19 06:31:35;;;;;;;9.75;7.72;;;;;;;;;;5089558;28;20039;-78
2021/10/19 06:34:01;;;;;;;8.68;7.55;;;;;;;;;;5092638;28;20094;-77
2021/10/19 06:36:27;;;;;;;8.70;7.43;;;;;;;;;;5087373;28;20024;-77
2021/10/19 06:38:53;;;;;;;8.45;7.55;;;;;;;;;;5090810;28;20043;-78
2021/10/19 06:41:18;;;;;;;8.80;7.45;;;;;;;;;;5085970;28;20066;-77
2021/10/19 06:43:44;;;;;;;9.65;7.32;;;;;;;;;;5074349;28;20054;-78
2021/10/19 06:46:10;;;;;;;8.40;7.28;;;;;;;;;;5079649;28;20087;-78
2021/10/19 06:48:35;;;;;;;9.18;7.45;;;;;;;;;;5077081;28;20036;-78
2021/10/19 06:51:02;;;;;;;9.32;7.90;;;;;;;;;;5072945;28;20028;-78
2021/10/19 06:53:27;;;;;;;10.50;7.97;;;;;;;;;;5088942;28;20118;-78
2021/10/19 06:55:53;;;;;;;11.45;7.82;;;;;;;;;;5077576;28;20451;-77
2021/10/19 06:58:18;;;;;;;9.55;7.32;;;;;;;;;;5085114;28;20074;-77
2021/10/19 07:00:43;;;;;;;10.13;7.60;;;;;;;;;;5094982;28;20024;-78
2021/10/19 07:03:09;;;;;;;10.77;8.18;;;;;;;;;;5067006;28;20058;-78
2021/10/19 07:05:34;;;;;;;8.75;7.85;;;;;;;;;;5076319;28;20032;-78
2021/10/19 07:08:00;;;;;;;10.60;7.82;;;;;;;;;;5078424;28;20078;-77
2021/10/19 07:10:25;;;;;;;9.43;8.25;;;;;;;;;;5095916;28;20031;-78
2021/10/19 07:12:51;;;;;;;8.50;7.60;;;;;;;;;;5094732;28;20024;-78
2021/10/19 07:15:17;;;;;;;10.93;7.88;;;;;;;;;;5094238;28;20416;-78
2021/10/19 07:17:42;;;;;;;9.00;7.82;;;;;;;;;;5094831;28;20468;-78
2021/10/19 07:20:10;;;;;;;9.18;7.60;;;;;;;;;;5090192;28;20043;-77
2021/10/19 07:22:37;;;;;;;10.05;8.20;;;;;;;;;;5093710;28;20046;-78
2021/10/19 07:25:03;;;;;;;8.82;7.50;;;;;;;;;;5088912;28;20023;-78
2021/10/19 07:27:31;;;;;;;9.20;7.63;;;;;;;;;;5078864;28;20032;-78
2021/10/19 07:29:57;;;;;;;10.43;7.47;;;;;;;;;;5088507;28;20482;-78
2021/10/19 07:32:22;;;;;;;9.15;7.53;;;;;;;;;;5091680;28;20035;-78
2021/10/19 07:34:48;;;;;;;11.75;7.93;;;;;;;;;;5097616;28;20106;-78
2021/10/19 07:37:15;;;;;;;10.15;7.93;;;;;;;;;;5091395;28;20039;-78
2021/10/19 07:39:40;;;;;;;8.48;7.60;;;;;;;;;;5087025;28;20114;-78
2021/10/19 07:42:06;;;;;;;9.07;7.63;;;;;;;;;;5091386;28;20110;-78
2021/10/19 07:44:31;;;;;;;10.70;8.57;;;;;;;;;;5079558;28;20032;-78
2021/10/19 07:46:56;;;;;;;10.52;8.43;;;;;;;;;;5091599;28;20059;-78
2021/10/19 07:49:22;;;;;;;10.57;8.60;;;;;;;;;;5095478;28;20032;-78
2021/10/19 07:51:48;;;;;;;9.77;8.20;;;;;;;;;;5100437;28;20024;-78
2021/10/19 07:54:13;;;;;;;9.07;8.10;;;;;;;;;;5088139;28;20032;-78
2021/10/19 07:56:39;;;;;;;10.52;8.52;;;;;;;;;;5080323;28;20464;-78
2021/10/19 07:59:08;;;;;;;9.55;8.38;;;;;;;;;;5081065;28;20037;-78
2021/10/19 08:01:34;;;;;;;9.85;8.13;;;;;;;;;;5087932;28;20036;-78
2021/10/19 08:04:00;;;;;;;8.82;7.75;;;;;;;;;;5082864;28;20028;-78
2021/10/19 08:06:25;;;;;;;9.48;8.15;;;;;;;;;;5083008;28;20102;-78
2021/10/19 08:08:51;;;;;;;9.23;8.10;;;;;;;;;;5072516;28;20027;-78
2021/10/19 08:11:16;;;;;;;9.52;8.23;;;;;;;;;;5070330;28;20024;-78
2021/10/19 08:13:42;;;;;;;9.77;8.20;;;;;;;;;;5092573;28;20032;-78
2021/10/19 08:16:08;;;;;;;9.73;7.97;;;;;;;;;;5084621;28;20027;-78
2021/10/19 08:18:33;;;;;;;9.85;7.60;;;;;;;;;;5082241;28;20118;-78
2021/10/19 08:20:59;;;;;;;8.50;7.60;;;;;;;;;;5072224;28;20037;-78
2021/10/19 08:23:24;;;;;;;9.60;7.45;;;;;;;;;;5089010;28;20502;-78
2021/10/19 08:25:50;;;;;;;9.77;8.07;;;;;;;;;;5071711;28;20394;-78
2021/10/19 08:28:30;;;;;;;8.68;7.60;;;;;;;;;;5086657;28;20047;-78
2021/10/19 08:30:56;;;;;;;10.32;7.68;;;;;;;;;;5088265;28;20036;-78
2021/10/19 08:33:21;;;;;;;8.95;7.40;;;;;;;;;;5080677;28;20041;-79
2021/10/19 08:35:47;;;;;;;8.30;7.15;;;;;;;;;;5081754;28;20039;-78
2021/10/19 08:38:13;;;;;;;7.60;6.80;;;;;;;;;;5084449;28;20534;-78
2021/10/19 08:40:43;;;;;;;8.20;7.07;;;;;;;;;;5067165;28;20074;-78
2021/10/19 08:43:10;;;;;;;7.18;6.25;;;;;;;;;;5085680;28;20032;-78
2021/10/19 08:45:35;;;;;;;9.00;7.18;;;;;;;;;;5088826;28;20059;-78
2021/10/19 08:48:02;;;;;;;8.80;7.07;;;;;;;;;;5082122;28;20107;-78
2021/10/19 08:50:28;;;;;;;7.07;6.22;;;;;;;;;;5089539;28;20058;-78
2021/10/19 08:52:54;;;;;;;8.85;6.45;;;;;;;;;;5080863;28;20071;-78
2021/10/19 08:55:20;;;;;;;7.15;6.07;;;;;;;;;;5084204;28;20518;-78
2021/10/19 08:57:45;;;;;;;6.88;6.18;;;;;;;;;;5065213;28;20034;-78
2021/10/19 09:00:11;;;;;;;6.65;5.95;;;;;;;;;;5085638;28;20032;-78
2021/10/19 09:02:45;;;;;;;7.50;5.30;;;;;;;;;;5081052;28;20051;-78
2021/10/19 09:05:15;;;;;;;6.78;5.68;;;;;;;;;;5086702;28;20027;-78
2021/10/19 09:08:00;;;;;;;6.88;5.70;;;;;;;;;;5084412;28;20411;-78
2021/10/19 09:10:28;;;;;;;5.95;5.35;;;;;;;;;;5081924;28;20427;-78
2021/10/19 09:12:56;;;;;;;5.30;4.60;;;;;;;;;;5088461;28;20032;-78
2021/10/19 09:15:33;;;;;;;5.85;5.05;;;;;;;;;;5089588;28;20036;-78
2021/10/19 09:18:12;;;;;;;5.10;4.47;;;;;;;;;;5096327;28;20032;-78
2021/10/19 09:20:42;;;;;;;5.65;4.07;;;;;;;;;;5090659;28;20024;-78
2021/10/19 09:23:09;;;;;;;4.85;4.25;;;;;;;;;;5103818;28;20066;-78
2021/10/19 09:25:38;;;;;;;6.03;4.13;;;;;;;;;;5095580;28;20028;-79
2021/10/19 09:28:07;;;;;;;5.43;4.38;;;;;;;;;;5085007;28;20031;-78
2021/10/19 09:30:47;;;;;;;4.85;3.80;;;;;;;;;;5097203;28;20028;-78
2021/10/19 09:33:21;;;;;;;4.53;3.63;;;;;;;;;;5096186;28;20118;-78
2021/10/19 09:35:51;;;;;;;5.47;3.72;;;;;;;;;;5084328;28;20467;-78
2021/10/19 09:38:17;;;;;;;5.18;3.90;;;;;;;;;;5094006;28;20028;-78
2021/10/19 09:40:45;;;;;;;10.98;4.80;;;;;;;;;;5096724;28;20031;-78
2021/10/19 09:43:14;;;;;;;5.60;4.35;;;;;;;;;;5090137;28;20039;-78
2021/10/19 09:45:42;;;;;;;5.57;4.28;;;;;;;;;;5073147;28;20477;-78
2021/10/19 09:48:13;;;;;;;6.93;4.97;;;;;;;;;;5096869;28;20028;-78
2021/10/19 09:50:38;;;;;;;6.38;5.07;;;;;;;;;;5095891;28;20061;-79
2021/10/19 09:53:05;;;;;;;7.47;5.78;;;;;;;;;;5080993;28;20127;-78
2021/10/19 09:55:32;;;;;;;7.28;5.60;;;;;;;;;;5091854;28;20029;-78
2021/10/19 09:57:58;;;;;;;8.93;6.40;;;;;;;;;;5091753;28;20471;-78
2021/10/19 10:00:25;;;;;;;7.47;6.18;;;;;;;;;;5097334;28;20039;-78
2021/10/19 10:02:51;;;;;;;7.05;5.60;;;;;;;;;;5077835;28;20031;-78
2021/10/19 10:05:17;;;;;;;8.38;6.55;;;;;;;;;;5093857;28;20035;-78
2021/10/19 10:07:45;;;;;;;8.40;6.53;;;;;;;;;;5093334;28;20143;-79
2021/10/19 10:10:14;;;;;;;7.47;6.10;;;;;;;;;;5102119;28;20051;-78
2021/10/19 10:12:39;;;;;;;7.43;6.47;;;;;;;;;;5088500;28;20021;-79
2021/10/19 10:15:05;;;;;;;8.88;6.95;;;;;;;;;;5083849;28;20036;-79
2021/10/19 10:17:31;;;;;;;8.57;6.72;;;;;;;;;;5099757;28;20088;-79
2021/10/19 10:20:08;;;;;;;9.40;7.50;;;;;;;;;;5064910;28;20487;-78
2021/10/19 10:22:45;;;;;;;9.63;8.23;;;;;;;;;;5094441;28;20024;-79
2021/10/19 10:25:16;;;;;;;10.15;7.82;;;;;;;;;;5094577;28;20028;-78
2021/10/19 10:27:42;;;;;;;11.60;7.80;;;;;;;;;;5088566;28;20030;-78
2021/10/19 10:30:26;;;;;;;9.82;7.85;;;;;;;;;;5078888;28;20472;-78
2021/10/19 10:32:54;;;;;;;9.57;7.82;;;;;;;;;;5072799;28;20035;-79
2021/10/19 10:35:25;;;;;;;10.13;8.15;;;;;;;;;;5091938;28;20031;-79
2021/10/19 10:37:55;;;;;;;10.38;8.25;;;;;;;;;;5073777;28;20380;-78
2021/10/19 10:40:27;;;;;;;12.15;9.18;;;;;;;;;;5079307;28;20415;-78
2021/10/19 10:42:53;;;;;;;12.57;8.77;;;;;;;;;;5094880;28;20055;-78
2021/10/19 10:45:32;;;;;;;12.25;8.85;;;;;;;;;;5090735;28;20024;-78
2021/10/19 10:48:01;;;;;;;11.80;8.38;;;;;;;;;;5093988;28;20020;-79
2021/10/19 10:50:28;;;;;;;13.20;10.05;;;;;;;;;;5093610;28;20051;-78
2021/10/19 10:53:03;;;;;;;12.65;9.88;;;;;;;;;;5096674;28;20032;-79
2021/10/19 10:55:36;;;;;;;14.25;10.00;;;;;;;;;;5094641;28;20024;-78
2021/10/19 10:58:02;;;;;;;13.30;9.15;;;;;;;;;;5098253;28;20410;-79
2021/10/19 11:00:27;;;;;;;17.52;11.00;;;;;;;;;;5090295;28;20036;-79
2021/10/19 11:03:25;;;;;;;12.98;9.98;;;;;;;;;;5105271;28;20382;-78
2021/10/19 11:05:58;;;;;;;12.50;9.88;;;;;;;;;;5061173;28;20050;-78
2021/10/19 11:08:29;;;;;;;13.48;9.68;;;;;;;;;;5095949;28;20048;-79
2021/10/19 11:11:09;;;;;;;13.35;9.63;;;;;;;;;;5099474;28;20027;-79
2021/10/19 11:13:52;;;;;;;14.57;10.90;;;;;;;;;;5097057;28;20018;-78
2021/10/19 11:16:26;;;;;;;16.02;10.85;;;;;;;;;;5095975;28;20051;-79
2021/10/19 11:18:52;;;;;;;13.35;10.18;;;;;;;;;;5096737;28;20089;-79
2021/10/19 11:21:18;;;;;;;16.77;10.98;;;;;;;;;;5094451;28;20036;-79
2021/10/19 11:23:43;;;;;;;15.13;11.10;;;;;;;;;;5085575;28;20020;-79
2021/10/19 11:26:11;;;;;;;16.88;11.63;;;;;;;;;;5091382;28;20394;-78
2021/10/19 11:28:37;;;;;;;16.70;11.43;;;;;;;;;;5092308;28;20036;-78
2021/10/19 11:31:04;;;;;;;16.05;11.40;;;;;;;;;;5087486;28;20032;-78
2021/10/19 11:33:44;;;;;;;16.90;11.57;;;;;;;;;;5096989;28;20123;-79
2021/10/19 11:36:11;;;;;;;16.40;11.20;;;;;;;;;;5095611;28;20013;-79
2021/10/19 11:38:48;;;;;;;15.30;11.18;;;;;;;;;;5081425;28;20073;-79
2021/10/19 11:41:16;;;;;;;16.17;11.95;;;;;;;;;;5092996;28;20028;-78
2021/10/19 11:43:51;;;;;;;17.20;11.95;;;;;;;;;;5096503;28;20387;-79
2021/10/19 11:46:19;;;;;;;15.38;11.43;;;;;;;;;;5089746;28;20547;-78
2021/10/19 11:48:50;;;;;;;18.88;12.05;;;;;;;;;;5091671;28;20036;-78
2021/10/19 11:51:16;;;;;;;13.80;11.20;;;;;;;;;;5097083;28;20031;-78
2021/10/19 11:53:43;;;;;;;16.00;12.10;;;;;;;;;;5096895;28;20502;-78
2021/10/19 11:56:10;;;;;;;16.10;11.40;;;;;;;;;;5093627;28;20017;-78
2021/10/19 11:58:47;;;;;;;13.77;10.02;;;;;;;;;;5091190;28;20230;-79
2021/10/19 12:01:13;;;;;;;17.73;11.73;;;;;;;;;;5092238;28;20027;-78
2021/10/19 12:03:38;;;;;;;15.23;11.30;;;;;;;;;;5078627;28;20023;-78
2021/10/19 12:06:09;;;;;;;17.75;11.90;;;;;;;;;;5097279;28;20471;-79
2021/10/19 12:08:34;;;;;;;15.70;11.27;;;;;;;;;;5094236;28;20020;-79
2021/10/19 12:11:10;;;;;;;16.40;10.75;;;;;;;;;;5075161;28;20038;-78
2021/10/19 12:13:37;;;;;;;14.25;10.00;;;;;;;;;;5074256;28;20039;-78
2021/10/19 12:16:03;;;;;;;15.93;11.10;;;;;;;;;;5092513;28;20015;-79
2021/10/19 12:18:39;;;;;;;16.20;11.00;;;;;;;;;;5070659;28;20539;-79
2021/10/19 12:21:04;;;;;;;14.38;10.65;;;;;;;;;;5086057;28;20395;-79
2021/10/19 12:23:30;;;;;;;16.92;11.75;;;;;;;;;;5083798;28;20032;-78
2021/10/19 12:25:55;;;;;;;14.32;10.48;;;;;;;;;;5092543;28;20108;-79
2021/10/19 12:28:28;;;;;;;15.30;10.85;;;;;;;;;;5089475;28;20069;-78
2021/10/19 12:30:55;;;;;;;;;;;;;;;;;;5085090;28;20067;-79
2021/10/19 12:33:25;;;;;;;13.30;10.85;;;;;;;;;;5097390;28;19957;-79
2021/10/19 12:36:02;;;;;;;13.95;10.15;;;;;;;;;;5097362;28;20107;-78
2021/10/19 12:38:34;;;;;;;14.77;10.82;;;;;;;;;;5091776;28;20028;-79
2021/10/19 12:41:12;;;;;;;14.57;12.02;;;;;;;;;;5096932;28;20085;-79
2021/10/19 12:43:39;;;;;;;15.30;12.00;;;;;;;;;;5088042;28;20081;-79
2021/10/19 12:46:06;;;;;;;15.95;12.85;;;;;;;;;;5087984;28;20093;-79
2021/10/19 12:48:34;;;;;;;19.08;13.90;;;;;;;;;;5088252;28;20395;-79
2021/10/19 12:51:01;;;;;;;17.65;13.38;;;;;;;;;;5074325;28;20091;-80
2021/10/19 12:53:27;;;;;;;19.77;14.77;;;;;;;;;;5093434;28;20502;-78
2021/10/19 12:55:52;;;;;;;19.10;14.48;;;;;;;;;;5087324;28;20056;-79
2021/10/19 12:58:18;;;;;;;20.15;14.23;;;;;;;;;;5071228;28;20059;-78
2021/10/19 13:00:43;;;;;;;21.20;15.30;;;;;;;;;;5071098;28;20564;-79
2021/10/19 13:03:09;;;;;;;21.00;14.88;;;;;;;;;;5084461;28;20035;-78
2021/10/19 13:05:34;;;;;;;19.52;15.13;;;;;;;;;;5091764;28;20031;-78
2021/10/19 13:08:01;;;;;;;19.98;14.93;;;;;;;;;;5085773;28;20039;-78
2021/10/19 13:10:27;;;;;;;18.83;15.48;;;;;;;;;;5063227;28;20177;-79
2021/10/19 13:12:52;;;;;;;24.58;16.48;;;;;;;;;;5088076;28;20091;-78
2021/10/19 13:15:18;;;;;;;19.67;14.95;;;;;;;;;;5069972;28;20425;-79
2021/10/19 13:17:44;;;;;;;20.58;15.43;;;;;;;;;;5097006;28;20019;-79
2021/10/19 13:20:11;;;;;;;20.33;16.52;;;;;;;;;;5070318;28;20085;-79
2021/10/19 13:22:37;;;;;;;20.88;15.55;;;;;;;;;;5101385;28;20020;-78
2021/10/19 13:25:03;;;;;;;19.15;15.00;;;;;;;;;;5093820;28;20111;-79
2021/10/19 13:27:28;;;;;;;20.48;15.20;;;;;;;;;;5095623;28;20526;-78
2021/10/19 13:29:54;;;;;;;22.17;16.10;;;;;;;;;;5078965;28;20475;-79
2021/10/19 13:32:19;;;;;;;24.15;16.05;;;;;;;;;;5094692;28;20471;-79
2021/10/19 13:34:45;;;;;;;18.88;15.30;;;;;;;;;;5084785;28;20036;-79
2021/10/19 13:37:10;;;;;;;19.23;15.32;;;;;;;;;;5067053;28;20077;-79
2021/10/19 13:39:36;;;;;;;21.95;15.18;;;;;;;;;;5086506;28;20058;-79
2021/10/19 13:42:01;;;;;;;22.65;15.30;;;;;;;;;;5091867;28;20483;-79
2021/10/19 13:44:27;;;;;;;21.65;15.50;;;;;;;;;;5081972;28;20035;-79
2021/10/19 13:46:52;;;;;;;22.10;15.35;;;;;;;;;;5079709;28;20039;-79
2021/10/19 13:49:17;;;;;;;25.10;15.18;;;;;;;;;;5082048;28;20118;-78
2021/10/19 13:51:43;;;;;;;25.55;15.40;;;;;;;;;;5063583;28;20062;-78
2021/10/19 13:54:08;;;;;;;28.90;15.32;;;;;;;;;;5078817;28;20028;-78
2021/10/19 13:56:36;;;;;;;22.67;15.02;;;;;;;;;;5082964;28;20092;-79
2021/10/19 13:59:04;;;;;;;25.63;15.07;;;;;;;;;;5076826;28;20028;-78
2021/10/19 14:01:29;;;;;;;21.13;14.63;;;;;;;;;;5085989;28;20032;-79
2021/10/19 14:03:55;;;;;;;19.80;14.68;;;;;;;;;;5072406;28;20110;-79
2021/10/19 14:06:21;;;;;;;18.02;13.68;;;;;;;;;;5072455;28;20048;-79
2021/10/19 14:08:46;;;;;;;20.55;13.13;;;;;;;;;;5076495;28;20052;-78
2021/10/19 14:11:11;;;;;;;22.50;13.20;;;;;;;;;;5083208;28;20048;-79
2021/10/19 14:13:38;;;;;;;17.20;12.93;;;;;;;;;;5080609;28;20353;-78
2021/10/19 14:16:06;;;;;;;19.23;12.60;;;;;;;;;;5081842;28;20036;-78
2021/10/19 14:18:32;;;;;;;15.02;12.05;;;;;;;;;;5082893;28;20024;-78
2021/10/19 14:20:57;;;;;;;16.95;11.85;;;;;;;;;;5076905;28;20400;-78
2021/10/19 14:23:23;;;;;;;15.52;11.48;;;;;;;;;;5086510;28;20504;-79
2021/10/19 14:25:48;;;;;;;16.13;11.63;;;;;;;;;;5093995;28;20055;-78
2021/10/19 14:28:14;;;;;;;21.52;14.27;;;;;;;;;;5074881;28;20024;-78